createdAt,value
2019-05-23T00:01:17.310Z,12.90
2019-05-23T00:02:56.104Z,12.80
2019-05-23T00:04:44.184Z,12.90
2019-05-23T00:06:32.230Z,12.80
2019-05-23T00:08:10.684Z,12.90
2019-05-23T00:09:47.678Z,12.90
2019-05-23T00:11:30.427Z,12.90
2019-05-23T00:13:17.590Z,12.90
2019-05-23T00:15:01.739Z,12.90
2019-05-23T00:16:40.706Z,12.90
2019-05-23T00:18:21.207Z,13.00
2019-05-23T00:19:58.676Z,12.90
2019-05-23T00:21:38.188Z,12.90
2019-05-23T00:23:15.298Z,12.90
2019-05-23T00:24:53.781Z,12.90
2019-05-23T00:26:30.464Z,12.90
2019-05-23T00:28:09.826Z,12.90
2019-05-23T00:29:49.260Z,12.90
2019-05-23T00:31:30.439Z,13.00
2019-05-23T00:33:08.850Z,13.00
2019-05-23T00:34:45.692Z,12.90
2019-05-23T00:36:25.693Z,13.00
2019-05-23T00:38:04.612Z,13.00
2019-05-23T00:39:43.999Z,12.90
2019-05-23T00:41:22.513Z,12.90
2019-05-23T00:43:00.547Z,13.00
2019-05-23T00:44:38.144Z,13.00
2019-05-23T00:46:15.834Z,13.00
2019-05-23T00:47:53.117Z,13.00
2019-05-23T00:49:31.615Z,13.00
2019-05-23T00:51:09.854Z,13.00
2019-05-23T00:52:48.142Z,13.00
2019-05-23T00:54:24.964Z,13.00
2019-05-23T00:56:02.435Z,13.00
2019-05-23T00:57:41.745Z,13.00
2019-05-23T00:59:27.193Z,13.00
2019-05-23T01:00:59.086Z,13.00
2019-05-23T01:02:36.338Z,13.00
2019-05-23T01:04:13.363Z,13.00
2019-05-23T01:05:52.467Z,13.00
2019-05-23T01:07:30.490Z,13.00
2019-05-23T01:09:09.761Z,13.00
2019-05-23T01:10:48.170Z,13.00
2019-05-23T01:12:25.637Z,13.00
2019-05-23T01:14:02.924Z,13.10
2019-05-23T01:15:42.800Z,13.10
2019-05-23T01:17:22.754Z,13.10
2019-05-23T01:19:00.846Z,13.10
2019-05-23T01:20:44.246Z,13.10
2019-05-23T01:22:21.302Z,13.10
2019-05-23T01:24:03.135Z,13.10
2019-05-23T01:25:40.495Z,13.10
2019-05-23T01:27:18.759Z,13.10
2019-05-23T01:28:57.221Z,13.20
2019-05-23T01:30:52.153Z,13.10
2019-05-23T01:32:31.217Z,13.10
2019-05-23T01:34:09.971Z,13.10
2019-05-23T01:35:47.675Z,13.10
2019-05-23T01:37:24.475Z,13.10
2019-05-23T01:39:03.149Z,13.10
2019-05-23T01:40:41.482Z,13.20
2019-05-23T01:42:20.847Z,13.20
2019-05-23T01:43:58.118Z,13.20
2019-05-23T01:45:37.095Z,13.20
2019-05-23T01:47:15.606Z,13.20
2019-05-23T01:48:53.270Z,13.20
2019-05-23T01:50:30.510Z,13.20
2019-05-23T01:52:09.696Z,13.20
2019-05-23T01:53:47.194Z,13.30
2019-05-23T01:55:24.853Z,13.30
2019-05-23T01:57:02.304Z,13.20
2019-05-23T01:58:40.717Z,13.20
2019-05-23T02:00:20.599Z,13.30
2019-05-23T02:01:58.425Z,13.20
2019-05-23T02:03:36.055Z,13.30
2019-05-23T02:05:14.855Z,13.30
2019-05-23T02:06:51.922Z,13.30
2019-05-23T02:08:30.089Z,13.30
2019-05-23T02:10:11.090Z,13.30
2019-05-23T02:11:48.410Z,13.30
2019-05-23T02:13:25.171Z,13.30
2019-05-23T02:15:03.334Z,13.30
2019-05-23T02:16:41.227Z,13.30
2019-05-23T02:18:19.023Z,13.40
2019-05-23T02:19:56.407Z,13.40
2019-05-23T02:21:34.217Z,13.40
2019-05-23T02:23:12.906Z,13.40
2019-05-23T02:24:50.558Z,13.40
2019-05-23T02:26:29.063Z,13.40
2019-05-23T02:28:07.330Z,13.40
2019-05-23T02:29:44.847Z,13.40
2019-05-23T02:31:22.547Z,13.40
2019-05-23T02:32:59.353Z,13.40
2019-05-23T02:34:37.234Z,13.40
2019-05-23T02:36:14.934Z,13.40
2019-05-23T02:37:59.051Z,13.40
2019-05-23T02:39:54.618Z,13.50
2019-05-23T02:41:38.411Z,13.50
2019-05-23T02:43:16.509Z,13.50
2019-05-23T02:44:53.316Z,13.50
2019-05-23T02:46:32.137Z,13.50
2019-05-23T02:48:13.002Z,13.50
2019-05-23T02:49:51.687Z,13.50
2019-05-23T02:51:37.349Z,13.50
2019-05-23T02:53:17.777Z,13.50
2019-05-23T02:54:55.305Z,13.50
2019-05-23T02:56:36.119Z,13.50
2019-05-23T02:58:26.147Z,13.60
2019-05-23T03:00:07.209Z,13.50
2019-05-23T03:02:21.774Z,13.60
2019-05-23T03:04:05.246Z,13.60
2019-05-23T03:05:43.092Z,13.50
2019-05-23T03:07:25.026Z,13.60
2019-05-23T03:09:03.409Z,13.60
2019-05-23T03:11:17.610Z,13.60
2019-05-23T03:12:56.601Z,13.60
2019-05-23T03:14:35.724Z,13.60
2019-05-23T03:16:16.625Z,13.50
2019-05-23T03:17:56.655Z,13.60
2019-05-23T03:19:48.179Z,13.60
2019-05-23T03:21:27.924Z,13.60
2019-05-23T03:23:15.518Z,13.60
2019-05-23T03:24:52.862Z,13.60
2019-05-23T03:26:40.008Z,13.60
2019-05-23T03:28:19.373Z,13.70
2019-05-23T03:29:56.662Z,13.70
2019-05-23T03:31:33.524Z,13.70
2019-05-23T03:33:11.992Z,13.70
2019-05-23T03:34:50.082Z,13.70
2019-05-23T03:36:28.003Z,13.70
2019-05-23T03:38:05.897Z,13.70
2019-05-23T03:39:43.939Z,13.80
2019-05-23T03:41:22.105Z,13.80
2019-05-23T03:42:59.335Z,13.90
2019-05-23T03:44:36.599Z,13.90
2019-05-23T03:46:14.753Z,13.90
2019-05-23T03:47:54.098Z,13.80
2019-05-23T03:49:31.259Z,13.80
2019-05-23T03:51:11.028Z,13.90
2019-05-23T03:52:49.413Z,14.00
2019-05-23T03:54:28.579Z,14.00
2019-05-23T03:56:07.876Z,13.90
2019-05-23T03:57:46.219Z,13.90
2019-05-23T03:59:25.013Z,14.00
2019-05-23T04:01:04.889Z,14.00
2019-05-23T04:02:43.479Z,14.10
2019-05-23T04:04:20.685Z,14.10
2019-05-23T04:05:59.758Z,14.10
2019-05-23T04:07:38.852Z,14.20
2019-05-23T04:09:17.246Z,14.30
2019-05-23T04:10:55.421Z,14.30
2019-05-23T04:12:33.753Z,14.30
2019-05-23T04:14:10.737Z,14.40
2019-05-23T04:15:49.010Z,14.30
2019-05-23T04:17:25.924Z,14.40
2019-05-23T04:19:03.292Z,14.40
2019-05-23T04:20:40.208Z,14.40
2019-05-23T04:22:18.366Z,14.30
2019-05-23T04:23:56.043Z,14.20
2019-05-23T04:25:33.922Z,14.30
2019-05-23T04:27:10.589Z,14.20
2019-05-23T04:28:48.588Z,14.20
2019-05-23T04:30:25.329Z,14.20
2019-05-23T04:32:08.590Z,14.20
2019-05-23T04:33:42.754Z,14.30
2019-05-23T04:35:20.577Z,14.30
2019-05-23T04:36:57.590Z,14.30
2019-05-23T04:38:36.702Z,14.30
2019-05-23T04:40:14.746Z,14.30
2019-05-23T04:41:51.954Z,14.40
2019-05-23T04:43:28.781Z,14.40
2019-05-23T04:45:08.452Z,14.50
2019-05-23T04:46:45.376Z,14.50
2019-05-23T04:48:24.151Z,14.60
2019-05-23T04:50:00.842Z,14.60
2019-05-23T04:51:38.478Z,14.70
2019-05-23T04:53:16.016Z,14.80
2019-05-23T04:54:53.817Z,14.80
2019-05-23T04:56:30.809Z,14.80
2019-05-23T04:58:08.701Z,14.90
2019-05-23T04:59:45.526Z,15.00
2019-05-23T05:01:24.669Z,15.00
2019-05-23T05:03:02.201Z,15.00
2019-05-23T05:04:39.527Z,15.00
2019-05-23T05:06:16.125Z,15.00
2019-05-23T05:07:53.454Z,15.10
2019-05-23T05:09:32.547Z,15.10
2019-05-23T05:11:10.540Z,15.20
2019-05-23T05:12:47.921Z,15.30
2019-05-23T05:14:27.581Z,15.40
2019-05-23T05:16:04.891Z,15.50
2019-05-23T05:17:43.001Z,15.60
2019-05-23T05:19:20.708Z,15.50
2019-05-23T05:20:57.956Z,15.50
2019-05-23T05:22:36.373Z,15.50
2019-05-23T05:24:13.850Z,15.50
2019-05-23T05:25:50.358Z,15.50
2019-05-23T05:27:28.318Z,15.50
2019-05-23T05:29:05.394Z,15.50
2019-05-23T05:30:43.092Z,15.50
2019-05-23T05:32:20.785Z,15.50
2019-05-23T05:33:58.495Z,15.60
2019-05-23T05:35:35.893Z,15.60
2019-05-23T05:37:13.909Z,15.50
2019-05-23T05:38:50.559Z,15.60
2019-05-23T05:40:27.886Z,15.80
2019-05-23T05:42:05.671Z,15.90
2019-05-23T05:43:43.431Z,16.00
2019-05-23T05:45:20.573Z,16.10
2019-05-23T05:46:58.114Z,16.20
2019-05-23T05:48:35.205Z,16.20
2019-05-23T05:50:15.496Z,16.20
2019-05-23T05:51:52.613Z,16.30
2019-05-23T05:53:29.757Z,16.40
2019-05-23T05:55:08.771Z,16.40
2019-05-23T05:56:48.806Z,16.40
2019-05-23T05:58:25.369Z,16.40
2019-05-23T06:00:02.760Z,16.40
2019-05-23T06:01:40.567Z,16.30
2019-05-23T06:03:17.849Z,16.10
2019-05-23T06:04:54.429Z,16.10
2019-05-23T06:06:33.306Z,16.00
2019-05-23T06:08:11.781Z,16.10
2019-05-23T06:09:51.092Z,16.10
2019-05-23T06:11:28.444Z,16.10
2019-05-23T06:13:06.256Z,16.00
2019-05-23T06:14:46.494Z,16.00
2019-05-23T06:16:22.166Z,15.90
2019-05-23T06:18:00.083Z,15.80
2019-05-23T06:19:38.119Z,15.80
2019-05-23T06:21:16.796Z,15.80
2019-05-23T06:22:56.193Z,15.80
2019-05-23T06:24:44.653Z,15.90
2019-05-23T06:26:11.580Z,15.80
2019-05-23T06:27:48.426Z,15.70
2019-05-23T06:29:27.321Z,15.80
2019-05-23T06:31:04.429Z,15.80
2019-05-23T06:32:42.291Z,15.80
2019-05-23T06:34:20.063Z,15.80
2019-05-23T06:35:57.895Z,15.70
2019-05-23T06:37:34.834Z,15.70
2019-05-23T06:39:13.120Z,15.70
2019-05-23T06:40:51.660Z,15.70
2019-05-23T06:42:29.057Z,15.90
2019-05-23T06:44:08.455Z,15.90
2019-05-23T06:45:49.035Z,16.00
2019-05-23T06:47:27.021Z,16.10
2019-05-23T06:49:05.722Z,16.40
2019-05-23T06:50:42.191Z,16.60
2019-05-23T06:52:19.849Z,16.60
2019-05-23T06:53:58.969Z,16.70
2019-05-23T06:55:36.447Z,16.80
2019-05-23T06:57:13.811Z,16.40
2019-05-23T06:58:51.192Z,16.40
2019-05-23T07:00:29.450Z,16.20
2019-05-23T07:02:07.387Z,16.50
2019-05-23T07:03:44.284Z,16.50
2019-05-23T07:05:26.368Z,16.60
2019-05-23T07:07:05.237Z,16.70
2019-05-23T07:08:41.576Z,16.70
2019-05-23T07:10:19.356Z,16.80
2019-05-23T07:11:59.341Z,16.80
2019-05-23T07:13:36.786Z,16.60
2019-05-23T07:15:14.912Z,16.60
2019-05-23T07:16:53.070Z,16.60
2019-05-23T07:18:29.517Z,16.50
2019-05-23T07:20:10.973Z,16.60
2019-05-23T07:21:48.382Z,16.60
2019-05-23T07:23:25.051Z,16.70
2019-05-23T07:25:02.790Z,16.70
2019-05-23T07:26:39.797Z,16.70
2019-05-23T07:28:17.128Z,16.60
2019-05-23T07:29:53.729Z,16.50
2019-05-23T07:31:31.463Z,16.40
2019-05-23T07:33:09.827Z,16.50
2019-05-23T07:34:49.066Z,16.40
2019-05-23T07:36:25.777Z,16.40
2019-05-23T07:38:03.387Z,16.40
2019-05-23T07:39:40.307Z,16.40
2019-05-23T07:41:18.367Z,16.40
2019-05-23T07:42:55.290Z,16.50
2019-05-23T07:44:47.569Z,16.40
2019-05-23T07:46:13.049Z,16.30
2019-05-23T07:47:50.273Z,16.20
2019-05-23T07:49:26.996Z,16.30
2019-05-23T07:51:04.601Z,16.30
2019-05-23T07:52:41.990Z,16.40
2019-05-23T07:54:20.178Z,16.40
2019-05-23T07:56:02.173Z,16.50
2019-05-23T07:57:40.152Z,16.50
2019-05-23T07:59:17.517Z,16.50
2019-05-23T08:01:04.309Z,16.40
2019-05-23T08:02:44.570Z,16.30
2019-05-23T08:04:22.647Z,16.50
2019-05-23T08:06:00.697Z,16.40
2019-05-23T08:07:37.566Z,16.50
2019-05-23T08:09:15.644Z,16.50
2019-05-23T08:10:52.463Z,16.50
2019-05-23T08:12:30.451Z,16.50
2019-05-23T08:14:11.887Z,16.40
2019-05-23T08:15:47.425Z,16.50
2019-05-23T08:17:24.141Z,16.50
2019-05-23T08:19:01.664Z,16.50
2019-05-23T08:20:38.895Z,16.60
2019-05-23T08:22:16.587Z,16.70
2019-05-23T08:23:53.036Z,17.00
2019-05-23T08:25:30.638Z,17.20
2019-05-23T08:27:07.550Z,17.30
2019-05-23T08:29:11.313Z,17.40
2019-05-23T08:30:24.230Z,17.50
2019-05-23T08:32:01.090Z,17.70
2019-05-23T08:33:37.686Z,17.70
2019-05-23T08:35:17.674Z,17.70
2019-05-23T08:36:53.783Z,18.00
2019-05-23T08:38:31.322Z,17.90
2019-05-23T08:40:10.484Z,18.00
2019-05-23T08:41:47.581Z,18.10
2019-05-23T08:43:24.103Z,18.20
2019-05-23T08:45:02.868Z,18.30
2019-05-23T08:46:39.929Z,18.40
2019-05-23T08:48:17.336Z,18.40
2019-05-23T08:49:53.876Z,18.60
2019-05-23T08:51:31.335Z,18.40
2019-05-23T08:53:08.079Z,18.40
2019-05-23T08:54:46.562Z,18.40
2019-05-23T08:56:23.919Z,18.10
2019-05-23T08:58:01.734Z,18.00
2019-05-23T08:59:38.348Z,18.10
2019-05-23T09:01:16.172Z,17.90
2019-05-23T09:02:53.380Z,18.00
2019-05-23T09:04:31.749Z,18.00
2019-05-23T09:06:08.986Z,18.00
2019-05-23T09:07:46.272Z,18.00
2019-05-23T09:09:29.698Z,18.00
2019-05-23T09:11:02.535Z,17.90
2019-05-23T09:12:39.209Z,17.80
2019-05-23T09:14:16.528Z,17.60
2019-05-23T09:15:53.748Z,17.60
2019-05-23T09:17:31.280Z,17.40
2019-05-23T09:19:08.008Z,17.40
2019-05-23T09:20:45.442Z,17.50
2019-05-23T09:22:23.500Z,17.30
2019-05-23T09:24:01.253Z,17.70
2019-05-23T09:25:37.911Z,17.40
2019-05-23T09:27:15.672Z,17.30
2019-05-23T09:28:52.403Z,17.30
2019-05-23T09:30:30.748Z,17.40
2019-05-23T09:32:08.624Z,17.40
2019-05-23T09:33:45.849Z,17.50
2019-05-23T09:35:22.918Z,17.40
2019-05-23T09:37:00.691Z,17.40
2019-05-23T09:38:37.312Z,17.40
2019-05-23T09:40:16.564Z,17.50
2019-05-23T09:41:53.229Z,17.50
2019-05-23T09:43:31.613Z,17.50
2019-05-23T09:45:09.132Z,17.50
2019-05-23T09:46:46.625Z,17.40
2019-05-23T09:48:23.314Z,17.40
2019-05-23T09:50:01.139Z,17.40
2019-05-23T09:51:37.694Z,17.50
2019-05-23T09:53:15.191Z,17.60
2019-05-23T09:54:51.556Z,17.70
2019-05-23T09:56:29.283Z,17.70
2019-05-23T09:58:06.109Z,17.70
2019-05-23T09:59:43.258Z,17.80
2019-05-23T10:01:20.469Z,17.90
2019-05-23T10:02:58.317Z,18.00
2019-05-23T10:04:35.350Z,18.00
2019-05-23T10:06:12.764Z,17.90
2019-05-23T10:07:49.409Z,18.00
2019-05-23T10:09:27.498Z,18.00
2019-05-23T10:11:04.688Z,18.00
2019-05-23T10:12:42.085Z,18.00
2019-05-23T10:14:26.200Z,18.00
2019-05-23T10:16:04.476Z,18.10
2019-05-23T10:17:41.296Z,18.30
2019-05-23T10:19:18.582Z,18.50
2019-05-23T10:20:55.125Z,18.70
2019-05-23T10:22:32.277Z,18.90
2019-05-23T10:24:09.169Z,19.40
2019-05-23T10:25:47.056Z,19.70
2019-05-23T10:27:23.503Z,20.20
2019-05-23T10:29:00.963Z,20.60
2019-05-23T10:30:37.839Z,20.80
2019-05-23T10:32:15.340Z,20.90
2019-05-23T10:33:51.967Z,20.70
2019-05-23T10:35:29.759Z,20.50
2019-05-23T10:37:08.242Z,20.30
2019-05-23T10:38:45.731Z,20.40
2019-05-23T10:40:23.163Z,20.20
2019-05-23T10:42:01.170Z,20.10
2019-05-23T10:43:38.587Z,19.80
2019-05-23T10:45:16.110Z,19.60
2019-05-23T10:46:52.650Z,19.30
2019-05-23T10:48:31.136Z,19.30
2019-05-23T10:50:10.383Z,19.40
2019-05-23T10:51:47.854Z,19.10
2019-05-23T10:53:24.298Z,18.90
2019-05-23T10:55:01.795Z,18.40
2019-05-23T10:56:38.765Z,18.40
2019-05-23T10:58:17.950Z,18.50
2019-05-23T10:59:54.518Z,18.40
2019-05-23T11:01:31.899Z,18.40
2019-05-23T11:03:10.638Z,18.40
2019-05-23T11:04:48.158Z,18.40
2019-05-23T11:06:25.244Z,18.40
2019-05-23T11:08:03.735Z,18.50
2019-05-23T11:09:40.523Z,18.50
2019-05-23T11:11:18.334Z,18.60
2019-05-23T11:12:55.522Z,18.60
2019-05-23T11:14:33.380Z,18.50
2019-05-23T11:16:10.399Z,18.50
2019-05-23T11:17:47.606Z,18.50
2019-05-23T11:19:24.591Z,18.30
2019-05-23T11:21:01.878Z,18.30
2019-05-23T11:22:38.571Z,18.10
2019-05-23T11:24:15.863Z,17.90
2019-05-23T11:25:53.418Z,17.60
2019-05-23T11:27:31.509Z,17.40
2019-05-23T11:29:16.172Z,17.30
2019-05-23T11:30:50.141Z,17.20
2019-05-23T11:32:27.405Z,17.10
2019-05-23T11:34:04.132Z,16.80
2019-05-23T11:35:41.822Z,16.80
2019-05-23T11:37:18.395Z,16.70
2019-05-23T11:38:56.655Z,16.50
2019-05-23T11:40:33.835Z,16.50
2019-05-23T11:42:11.242Z,16.50
2019-05-23T11:43:48.036Z,16.30
2019-05-23T11:45:27.313Z,16.10
2019-05-23T11:47:05.387Z,16.10
2019-05-23T11:48:41.990Z,16.20
2019-05-23T11:50:19.328Z,16.10
2019-05-23T11:51:57.231Z,16.10
2019-05-23T11:53:35.526Z,16.10
2019-05-23T11:55:12.656Z,16.10
2019-05-23T11:56:49.979Z,16.20
2019-05-23T11:58:31.934Z,16.30
2019-05-23T12:00:09.335Z,16.20
2019-05-23T12:01:47.361Z,16.20
2019-05-23T12:03:24.588Z,16.20
2019-05-23T12:05:03.178Z,16.20
2019-05-23T12:06:54.375Z,16.20
2019-05-23T12:08:22.848Z,16.10
2019-05-23T12:10:00.837Z,16.10
2019-05-23T12:11:42.315Z,16.00
2019-05-23T12:13:16.368Z,16.10
2019-05-23T12:14:53.605Z,16.10
2019-05-23T12:16:30.940Z,16.10
2019-05-23T12:18:09.528Z,16.20
2019-05-23T12:19:47.056Z,16.20
2019-05-23T12:21:23.689Z,16.20
2019-05-23T12:23:01.505Z,16.20
2019-05-23T12:24:38.096Z,16.30
2019-05-23T12:26:15.373Z,16.20
2019-05-23T12:27:54.739Z,16.20
2019-05-23T12:29:31.977Z,16.20
2019-05-23T12:31:09.586Z,16.20
2019-05-23T12:32:47.917Z,16.10
2019-05-23T12:34:24.630Z,16.10
2019-05-23T12:36:03.278Z,16.10
2019-05-23T12:37:41.217Z,16.10
2019-05-23T12:39:18.775Z,16.20
2019-05-23T12:40:55.513Z,16.30
2019-05-23T12:42:32.854Z,16.30
2019-05-23T12:44:09.868Z,16.30
2019-05-23T12:45:47.091Z,16.30
2019-05-23T12:47:25.458Z,16.20
2019-05-23T12:49:06.523Z,16.20
2019-05-23T12:50:53.999Z,16.10
2019-05-23T12:52:29.782Z,16.20
2019-05-23T12:54:06.725Z,16.20
2019-05-23T12:55:44.190Z,16.10
2019-05-23T12:57:21.032Z,16.20
2019-05-23T12:58:58.400Z,16.20
2019-05-23T13:00:43.282Z,16.20
2019-05-23T13:02:22.078Z,16.30
2019-05-23T13:03:59.590Z,16.30
2019-05-23T13:05:37.447Z,16.30
2019-05-23T13:07:14.363Z,16.30
2019-05-23T13:08:51.831Z,16.30
2019-05-23T13:10:28.274Z,16.30
2019-05-23T13:12:06.054Z,16.20
2019-05-23T13:13:42.614Z,16.20
2019-05-23T13:15:22.055Z,16.20
2019-05-23T13:17:01.180Z,16.10
2019-05-23T13:18:37.979Z,16.00
2019-05-23T13:20:14.433Z,16.00
2019-05-23T13:21:51.863Z,15.90
2019-05-23T13:23:28.460Z,15.90
2019-05-23T13:25:08.752Z,15.90
2019-05-23T13:26:45.566Z,15.90
2019-05-23T13:28:23.118Z,15.90
2019-05-23T13:30:01.725Z,15.80
2019-05-23T13:31:39.129Z,15.90
2019-05-23T13:33:16.345Z,15.70
2019-05-23T13:34:53.658Z,15.80
2019-05-23T13:36:30.450Z,15.70
2019-05-23T13:38:08.912Z,15.70
2019-05-23T13:39:45.940Z,15.80
2019-05-23T13:41:24.350Z,15.70
2019-05-23T13:43:00.811Z,15.60
2019-05-23T13:44:38.435Z,15.60
2019-05-23T13:46:14.987Z,15.60
2019-05-23T13:47:53.333Z,15.60
2019-05-23T13:49:30.046Z,15.50
2019-05-23T13:51:08.837Z,15.40
2019-05-23T13:52:45.731Z,15.30
2019-05-23T13:54:23.583Z,15.20
2019-05-23T13:56:00.737Z,15.30
2019-05-23T13:57:38.735Z,15.30
2019-05-23T13:59:15.321Z,15.30
2019-05-23T14:00:52.816Z,15.30
2019-05-23T14:02:30.767Z,15.30
2019-05-23T14:04:08.454Z,15.30
2019-05-23T14:05:45.323Z,15.20
2019-05-23T14:07:22.605Z,15.30
2019-05-23T14:09:00.337Z,15.20
2019-05-23T14:10:38.279Z,15.30
2019-05-23T14:12:21.034Z,15.20
2019-05-23T14:14:01.251Z,15.10
2019-05-23T14:15:35.337Z,15.20
2019-05-23T14:17:13.600Z,15.00
2019-05-23T14:18:50.380Z,15.00
2019-05-23T14:20:27.970Z,15.10
2019-05-23T14:22:04.959Z,15.10
2019-05-23T14:23:42.248Z,15.00
2019-05-23T14:25:19.248Z,15.00
2019-05-23T14:26:57.694Z,15.00
2019-05-23T14:28:34.908Z,14.90
2019-05-23T14:30:29.333Z,14.90
2019-05-23T14:32:21.419Z,15.00
2019-05-23T14:34:05.995Z,14.90
2019-05-23T14:35:45.063Z,14.90
2019-05-23T14:37:23.415Z,14.90
2019-05-23T14:39:01.910Z,14.90
2019-05-23T14:40:38.801Z,15.00
2019-05-23T14:42:19.678Z,14.90
2019-05-23T14:43:55.815Z,14.90
2019-05-23T14:45:34.170Z,14.80
2019-05-23T14:47:30.445Z,14.90
2019-05-23T14:49:11.903Z,14.80
2019-05-23T14:50:54.278Z,14.80
2019-05-23T14:52:38.816Z,14.70
2019-05-23T14:54:23.843Z,14.80
2019-05-23T14:56:00.788Z,14.80
2019-05-23T14:57:38.872Z,14.70
2019-05-23T14:59:15.532Z,14.70
2019-05-23T15:00:53.755Z,14.70
2019-05-23T15:02:31.028Z,14.70
2019-05-23T15:04:08.649Z,14.70
2019-05-23T15:05:45.540Z,14.60
2019-05-23T15:07:23.267Z,14.60
2019-05-23T15:09:00.141Z,14.60
2019-05-23T15:10:37.807Z,14.50
2019-05-23T15:12:14.517Z,14.50
2019-05-23T15:13:52.910Z,14.50
2019-05-23T15:15:29.979Z,14.40
2019-05-23T15:17:07.937Z,14.40
2019-05-23T15:18:44.614Z,14.30
2019-05-23T15:20:21.949Z,14.30
2019-05-23T15:21:58.921Z,14.30
2019-05-23T15:23:36.402Z,14.40
2019-05-23T15:25:13.420Z,14.40
2019-05-23T15:26:51.364Z,14.40
2019-05-23T15:28:27.824Z,14.30
2019-05-23T15:30:07.200Z,14.30
2019-05-23T15:32:00.623Z,14.40
2019-05-23T15:33:22.923Z,14.30
2019-05-23T15:34:59.812Z,14.20
2019-05-23T15:36:38.142Z,14.30
2019-05-23T15:38:14.154Z,14.20
2019-05-23T15:39:51.550Z,14.30
2019-05-23T15:41:28.153Z,14.30
2019-05-23T15:43:09.494Z,14.30
2019-05-23T15:44:44.572Z,14.40
2019-05-23T15:46:21.864Z,14.40
2019-05-23T15:47:58.381Z,14.40
2019-05-23T15:49:37.473Z,14.40
2019-05-23T15:51:15.663Z,14.40
2019-05-23T15:52:52.253Z,14.40
2019-05-23T15:54:37.023Z,14.40
2019-05-23T15:56:31.168Z,14.40
2019-05-23T15:58:10.252Z,14.30
2019-05-23T15:59:51.190Z,14.30
2019-05-23T16:01:38.661Z,14.20
2019-05-23T16:03:26.112Z,14.20
2019-05-23T16:05:03.855Z,14.20
2019-05-23T16:06:41.263Z,14.20
2019-05-23T16:08:19.020Z,14.20
2019-05-23T16:09:55.515Z,14.20
2019-05-23T16:11:32.725Z,14.20
2019-05-23T16:13:09.279Z,14.20
2019-05-23T16:14:47.034Z,14.20
2019-05-23T16:16:24.083Z,14.10
2019-05-23T16:18:02.053Z,14.10
2019-05-23T16:19:38.727Z,14.10
2019-05-23T16:21:16.529Z,14.10
2019-05-23T16:22:53.098Z,14.10
2019-05-23T16:24:31.749Z,14.00
2019-05-23T16:26:11.629Z,14.00
2019-05-23T16:27:49.068Z,14.00
2019-05-23T16:29:27.542Z,13.90
2019-05-23T16:31:05.138Z,13.90
2019-05-23T16:32:41.527Z,13.90
2019-05-23T16:34:18.912Z,13.90
2019-05-23T16:35:56.488Z,13.70
2019-05-23T16:37:33.845Z,13.80
2019-05-23T16:39:10.538Z,13.70
2019-05-23T16:40:47.910Z,13.80
2019-05-23T16:42:24.627Z,13.80
2019-05-23T16:44:01.303Z,13.80
2019-05-23T16:45:39.156Z,13.80
2019-05-23T16:47:16.423Z,13.70
2019-05-23T16:48:53.396Z,13.80
2019-05-23T16:50:30.757Z,13.70
2019-05-23T16:52:07.390Z,13.80
2019-05-23T16:53:45.086Z,13.80
2019-05-23T16:55:26.289Z,13.80
2019-05-23T16:57:02.512Z,13.70
2019-05-23T16:58:46.486Z,13.70
2019-05-23T17:00:26.477Z,13.70
2019-05-23T17:02:06.980Z,13.70
2019-05-23T17:04:03.491Z,13.70
2019-05-23T17:05:47.572Z,13.70
2019-05-23T17:07:43.270Z,13.60
2019-05-23T17:09:31.339Z,13.60
2019-05-23T17:11:08.386Z,13.60
2019-05-23T17:12:44.736Z,13.60
2019-05-23T17:14:37.369Z,13.60
2019-05-23T17:16:15.573Z,13.60
2019-05-23T17:18:02.730Z,13.60
2019-05-23T17:19:45.899Z,13.60
2019-05-23T17:21:22.596Z,13.60
2019-05-23T17:23:17.296Z,13.60
2019-05-23T17:25:12.263Z,13.60
2019-05-23T17:26:48.751Z,13.60
2019-05-23T17:28:36.055Z,13.60
2019-05-23T17:30:24.455Z,13.60
2019-05-23T17:32:02.319Z,13.60
2019-05-23T17:33:39.365Z,13.60
2019-05-23T17:35:17.076Z,13.60
2019-05-23T17:36:53.538Z,13.60
2019-05-23T17:38:31.234Z,13.50
2019-05-23T17:40:24.229Z,13.60
2019-05-23T17:41:50.664Z,13.50
2019-05-23T17:43:27.248Z,13.50
2019-05-23T17:45:06.542Z,13.50
2019-05-23T17:46:44.370Z,13.50
2019-05-23T17:48:21.929Z,13.50
2019-05-23T17:49:58.799Z,13.50
2019-05-23T17:51:36.131Z,13.50
2019-05-23T17:53:12.644Z,13.50
2019-05-23T17:54:50.053Z,13.50
2019-05-23T17:56:29.642Z,13.60
2019-05-23T17:58:07.252Z,13.60
2019-05-23T17:59:44.784Z,13.60
2019-05-23T18:01:23.148Z,13.60
2019-05-23T18:03:00.429Z,13.60
2019-05-23T18:04:38.208Z,13.60
2019-05-23T18:06:15.000Z,13.60
2019-05-23T18:07:52.718Z,13.60
2019-05-23T18:09:33.803Z,13.60
2019-05-23T18:11:11.404Z,13.60
2019-05-23T18:12:48.333Z,13.60
2019-05-23T18:14:26.371Z,13.60
2019-05-23T18:16:04.017Z,13.70
2019-05-23T18:17:41.460Z,13.60
2019-05-23T18:19:18.944Z,13.70
2019-05-23T18:20:56.242Z,13.60
2019-05-23T18:22:35.601Z,13.60
2019-05-23T18:24:13.905Z,13.50
2019-05-23T18:25:50.806Z,13.60
2019-05-23T18:27:28.816Z,13.50
2019-05-23T18:29:06.057Z,13.50
2019-05-23T18:30:47.977Z,13.50
2019-05-23T18:32:26.199Z,13.50
2019-05-23T18:34:05.901Z,13.50
2019-05-23T18:35:43.267Z,13.60
2019-05-23T18:37:20.025Z,13.50
2019-05-23T18:38:59.169Z,13.50
2019-05-23T18:40:36.437Z,13.50
2019-05-23T18:42:14.011Z,13.50
2019-05-23T18:43:50.584Z,13.40
2019-05-23T18:45:28.226Z,13.40
2019-05-23T18:47:06.516Z,13.40
2019-05-23T18:48:43.751Z,13.50
2019-05-23T18:50:22.436Z,13.40
2019-05-23T18:51:59.734Z,13.50
2019-05-23T18:53:37.998Z,13.40
2019-05-23T18:55:15.853Z,13.50
2019-05-23T18:56:53.683Z,13.50
2019-05-23T18:58:31.017Z,13.50
2019-05-23T19:00:10.314Z,13.50
2019-05-23T19:01:47.534Z,13.50
2019-05-23T19:03:24.439Z,13.50
2019-05-23T19:05:02.470Z,13.40
2019-05-23T19:06:39.527Z,13.40
2019-05-23T19:08:17.305Z,13.40
2019-05-23T19:09:53.847Z,13.40
2019-05-23T19:11:31.375Z,13.50
2019-05-23T19:13:07.832Z,13.40
2019-05-23T19:14:45.394Z,13.40
2019-05-23T19:16:22.227Z,13.40
2019-05-23T19:17:59.938Z,13.40
2019-05-23T19:19:36.812Z,13.40
2019-05-23T19:21:15.908Z,13.40
2019-05-23T19:22:53.080Z,13.40
2019-05-23T19:24:31.918Z,13.40
2019-05-23T19:26:09.216Z,13.40
2019-05-23T19:27:47.048Z,13.30
2019-05-23T19:29:23.585Z,13.30
2019-05-23T19:31:01.603Z,13.30
2019-05-23T19:32:38.998Z,13.30
2019-05-23T19:34:16.757Z,13.20
2019-05-23T19:35:54.059Z,13.30
2019-05-23T19:37:31.815Z,13.30
2019-05-23T19:39:08.915Z,13.30
2019-05-23T19:40:48.135Z,13.30
2019-05-23T19:42:24.706Z,13.30
2019-05-23T19:44:03.192Z,13.20
2019-05-23T19:45:39.924Z,13.30
2019-05-23T19:47:18.222Z,13.30
2019-05-23T19:48:57.597Z,13.30
2019-05-23T19:50:34.908Z,13.30
2019-05-23T19:52:12.993Z,13.20
2019-05-23T19:53:50.977Z,13.20
2019-05-23T19:55:29.232Z,13.20
2019-05-23T19:57:06.631Z,13.20
2019-05-23T19:58:43.475Z,13.20
2019-05-23T20:00:22.869Z,13.30
2019-05-23T20:02:02.431Z,13.30
2019-05-23T20:03:39.809Z,13.30
2019-05-23T20:05:21.490Z,13.30
2019-05-23T20:06:59.468Z,13.20
2019-05-23T20:08:37.914Z,13.30
2019-05-23T20:10:18.598Z,13.20
2019-05-23T20:11:55.436Z,13.20
2019-05-23T20:13:32.443Z,13.30
2019-05-23T20:15:10.241Z,13.30
2019-05-23T20:16:48.343Z,13.20
2019-05-23T20:18:25.241Z,13.20
2019-05-23T20:20:03.237Z,13.20
2019-05-23T20:21:39.688Z,13.20
2019-05-23T20:23:17.607Z,13.20
2019-05-23T20:24:54.528Z,13.20
2019-05-23T20:26:32.183Z,13.20
2019-05-23T20:28:09.315Z,13.20
2019-05-23T20:29:46.782Z,13.20
2019-05-23T20:31:24.595Z,13.20
2019-05-23T20:33:03.389Z,13.20
2019-05-23T20:34:39.936Z,13.10
2019-05-23T20:36:18.105Z,13.10
2019-05-23T20:37:54.902Z,13.20
2019-05-23T20:39:32.859Z,13.20
2019-05-23T20:41:09.688Z,13.20
2019-05-23T20:42:47.453Z,13.20
2019-05-23T20:44:24.439Z,13.20
2019-05-23T20:46:01.809Z,13.20
2019-05-23T20:47:39.101Z,13.10
2019-05-23T20:49:16.511Z,13.20
2019-05-23T20:50:53.538Z,13.20
2019-05-23T20:52:31.141Z,13.20
2019-05-23T20:54:08.192Z,13.20
2019-05-23T20:55:46.687Z,13.20
2019-05-23T20:57:23.261Z,13.20
2019-05-23T20:59:01.145Z,13.20
2019-05-23T21:00:39.409Z,13.10
2019-05-23T21:02:17.009Z,13.20
2019-05-23T21:03:54.430Z,13.10
2019-05-23T21:05:31.822Z,13.20
2019-05-23T21:07:08.710Z,13.20
2019-05-23T21:08:46.855Z,13.20